sensor_id;sensor_type;location;lat;lon;timestamp;pressure;altitude;pressure_sealevel;temperature;humidity
20444;BME280;10381;53.730;10.010;2024-01-30T00:00:28;102246.31;;;0.25;100.00
20444;BME280;10381;53.730;10.010;2024-01-30T00:04:29;102247.41;;;0.15;100.00
20444;BME280;10381;53.730;10.010;2024-01-30T00:08:29;102234.72;;;-0.02;100.00
20444;BME280;10381;53.730;10.010;2024-01-30T00:12:29;102222.75;;;-0.11;100.00
20444;BME280;10381;53.730;10.010;2024-01-30T00:16:30;102220.03;;;-0.05;100.00
20444;BME280;10381;53.730;10.010;2024-01-30T00:20:30;102210.56;;;-0.10;100.00
20444;BME280;10381;53.730;10.010;2024-01-30T00:24:30;102201.03;;;-0.11;100.00
20444;BME280;10381;53.730;10.010;2024-01-30T00:28:30;102209.53;;;-0.02;100.00
20444;BME280;10381;53.730;10.010;2024-01-30T00:32:31;102209.59;;;-0.05;100.00
20444;BME280;10381;53.730;10.010;2024-01-30T00:36:31;102201.84;;;0.31;100.00
20444;BME280;10381;53.730;10.010;2024-01-30T00:40:32;102194.41;;;0.52;100.00
20444;BME280;10381;53.730;10.010;2024-01-30T00:44:35;102186.16;;;0.34;100.00
20444;BME280;10381;53.730;10.010;2024-01-30T00:48:35;102180.94;;;0.33;100.00
20444;BME280;10381;53.730;10.010;2024-01-30T00:52:35;102173.69;;;0.46;100.00
20444;BME280;10381;53.730;10.010;2024-01-30T00:56:36;102173.84;;;0.41;100.00
20444;BME280;10381;53.730;10.010;2024-01-30T01:00:36;102166.69;;;0.48;100.00
20444;BME280;10381;53.730;10.010;2024-01-30T01:04:37;102156.97;;;0.54;100.00
20444;BME280;10381;53.730;10.010;2024-01-30T01:08:37;102152.19;;;0.72;100.00
20444;BME280;10381;53.730;10.010;2024-01-30T01:12:37;102151.25;;;0.74;100.00
20444;BME280;10381;53.730;10.010;2024-01-30T01:16:37;102143.38;;;0.77;100.00
20444;BME280;10381;53.730;10.010;2024-01-30T01:20:38;102142.25;;;0.86;100.00
20444;BME280;10381;53.730;10.010;2024-01-30T01:24:38;102143.69;;;0.98;100.00
20444;BME280;10381;53.730;10.010;2024-01-30T01:28:41;102141.09;;;0.98;100.00
20444;BME280;10381;53.730;10.010;2024-01-30T01:32:41;102127.75;;;1.09;100.00
20444;BME280;10381;53.730;10.010;2024-01-30T01:36:49;102123.31;;;1.12;100.00
20444;BME280;10381;53.730;10.010;2024-01-30T01:40:49;102117.94;;;1.18;100.00
20444;BME280;10381;53.730;10.010;2024-01-30T01:44:51;102111.69;;;1.22;100.00
20444;BME280;10381;53.730;10.010;2024-01-30T01:48:51;102107.22;;;1.27;100.00
20444;BME280;10381;53.730;10.010;2024-01-30T01:52:52;102102.72;;;1.33;100.00
20444;BME280;10381;53.730;10.010;2024-01-30T01:56:53;102094.81;;;1.36;100.00
20444;BME280;10381;53.730;10.010;2024-01-30T02:00:54;102086.06;;;1.37;100.00
20444;BME280;10381;53.730;10.010;2024-01-30T02:13:16;102060.16;;;1.29;100.00
20444;BME280;10381;53.730;10.010;2024-01-30T02:17:16;102051.16;;;1.39;100.00
20444;BME280;10381;53.730;10.010;2024-01-30T02:21:18;102034.75;;;1.36;100.00
20444;BME280;10381;53.730;10.010;2024-01-30T02:25:18;102018.63;;;1.78;100.00
20444;BME280;10381;53.730;10.010;2024-01-30T02:29:18;102033.38;;;1.80;100.00
20444;BME280;10381;53.730;10.010;2024-01-30T02:33:19;102031.38;;;1.60;100.00
20444;BME280;10381;53.730;10.010;2024-01-30T02:37:19;102029.56;;;1.62;100.00
20444;BME280;10381;53.730;10.010;2024-01-30T02:41:19;102029.72;;;1.58;100.00
20444;BME280;10381;53.730;10.010;2024-01-30T02:45:20;102017.47;;;1.60;100.00
20444;BME280;10381;53.730;10.010;2024-01-30T02:49:20;102032.34;;;1.58;100.00
20444;BME280;10381;53.730;10.010;2024-01-30T02:53:21;102034.00;;;1.60;100.00
20444;BME280;10381;53.730;10.010;2024-01-30T02:57:21;102037.78;;;1.50;100.00
20444;BME280;10381;53.730;10.010;2024-01-30T03:01:22;102051.78;;;1.18;100.00
20444;BME280;10381;53.730;10.010;2024-01-30T03:05:23;102042.75;;;1.00;100.00
20444;BME280;10381;53.730;10.010;2024-01-30T03:09:23;102046.63;;;0.85;100.00
20444;BME280;10381;53.730;10.010;2024-01-30T03:13:23;102045.25;;;0.72;100.00
20444;BME280;10381;53.730;10.010;2024-01-30T03:17:25;102042.66;;;1.03;100.00
20444;BME280;10381;53.730;10.010;2024-01-30T03:21:25;102046.19;;;0.69;100.00
20444;BME280;10381;53.730;10.010;2024-01-30T03:25:27;102030.91;;;0.55;100.00
20444;BME280;10381;53.730;10.010;2024-01-30T03:29:27;102030.88;;;0.57;100.00
20444;BME280;10381;53.730;10.010;2024-01-30T03:33:27;102027.94;;;0.69;100.00
20444;BME280;10381;53.730;10.010;2024-01-30T03:37:28;102023.75;;;0.95;100.00
20444;BME280;10381;53.730;10.010;2024-01-30T03:41:28;102021.31;;;0.89;100.00
20444;BME280;10381;53.730;10.010;2024-01-30T03:45:28;102013.88;;;0.75;100.00
20444;BME280;10381;53.730;10.010;2024-01-30T03:49:29;102013.44;;;0.59;100.00
20444;BME280;10381;53.730;10.010;2024-01-30T03:53:29;102008.13;;;0.62;100.00
20444;BME280;10381;53.730;10.010;2024-01-30T03:57:29;102011.28;;;1.04;100.00
20444;BME280;10381;53.730;10.010;2024-01-30T04:01:30;102008.72;;;1.03;100.00
20444;BME280;10381;53.730;10.010;2024-01-30T04:05:32;102013.47;;;0.89;100.00
20444;BME280;10381;53.730;10.010;2024-01-30T04:09:33;102018.75;;;0.87;100.00
20444;BME280;10381;53.730;10.010;2024-01-30T04:13:33;102022.38;;;0.81;100.00
20444;BME280;10381;53.730;10.010;2024-01-30T04:17:34;102021.38;;;0.54;100.00
20444;BME280;10381;53.730;10.010;2024-01-30T04:21:34;102021.78;;;0.39;100.00
20444;BME280;10381;53.730;10.010;2024-01-30T04:25:35;102020.91;;;0.38;100.00
20444;BME280;10381;53.730;10.010;2024-01-30T04:29:36;102025.84;;;0.51;100.00
20444;BME280;10381;53.730;10.010;2024-01-30T04:33:36;102021.31;;;0.23;100.00
20444;BME280;10381;53.730;10.010;2024-01-30T04:37:37;102007.25;;;0.30;100.00
20444;BME280;10381;53.730;10.010;2024-01-30T04:41:37;102008.38;;;0.84;100.00
20444;BME280;10381;53.730;10.010;2024-01-30T04:45:37;102009.03;;;0.92;100.00
20444;BME280;10381;53.730;10.010;2024-01-30T04:49:38;101996.47;;;0.42;100.00
20444;BME280;10381;53.730;10.010;2024-01-30T04:53:39;102001.13;;;0.64;100.00
20444;BME280;10381;53.730;10.010;2024-01-30T04:57:40;101991.19;;;0.77;100.00
20444;BME280;10381;53.730;10.010;2024-01-30T05:01:40;101991.50;;;0.66;100.00
20444;BME280;10381;53.730;10.010;2024-01-30T05:05:41;101993.06;;;0.72;100.00
20444;BME280;10381;53.730;10.010;2024-01-30T05:09:41;101996.75;;;0.96;100.00
20444;BME280;10381;53.730;10.010;2024-01-30T05:13:41;101988.59;;;0.77;100.00
20444;BME280;10381;53.730;10.010;2024-01-30T05:17:41;101981.06;;;0.97;100.00
20444;BME280;10381;53.730;10.010;2024-01-30T05:21:42;101977.78;;;1.20;100.00
20444;BME280;10381;53.730;10.010;2024-01-30T05:25:42;101982.94;;;1.50;100.00
20444;BME280;10381;53.730;10.010;2024-01-30T05:29:42;101965.38;;;1.55;100.00
20444;BME280;10381;53.730;10.010;2024-01-30T05:33:43;101967.59;;;1.67;100.00
20444;BME280;10381;53.730;10.010;2024-01-30T05:37:43;101974.47;;;1.70;100.00
20444;BME280;10381;53.730;10.010;2024-01-30T05:41:43;101965.81;;;1.95;100.00
20444;BME280;10381;53.730;10.010;2024-01-30T05:45:43;101960.22;;;2.07;100.00
20444;BME280;10381;53.730;10.010;2024-01-30T05:49:44;101953.63;;;1.95;100.00
20444;BME280;10381;53.730;10.010;2024-01-30T05:53:44;101962.91;;;2.04;100.00
20444;BME280;10381;53.730;10.010;2024-01-30T05:57:45;101960.22;;;2.07;100.00
20444;BME280;10381;53.730;10.010;2024-01-30T06:01:46;101971.97;;;2.19;100.00
20444;BME280;10381;53.730;10.010;2024-01-30T06:05:47;101961.94;;;2.06;100.00
20444;BME280;10381;53.730;10.010;2024-01-30T06:09:47;101975.72;;;2.11;100.00
20444;BME280;10381;53.730;10.010;2024-01-30T06:13:48;101981.81;;;2.12;100.00
20444;BME280;10381;53.730;10.010;2024-01-30T06:17:48;101985.13;;;2.17;100.00
20444;BME280;10381;53.730;10.010;2024-01-30T06:21:48;101984.78;;;2.01;100.00
20444;BME280;10381;53.730;10.010;2024-01-30T06:25:49;101982.97;;;2.03;100.00
20444;BME280;10381;53.730;10.010;2024-01-30T06:29:50;101984.66;;;2.04;100.00
20444;BME280;10381;53.730;10.010;2024-01-30T06:33:50;101995.78;;;2.11;100.00
20444;BME280;10381;53.730;10.010;2024-01-30T06:37:51;101988.50;;;1.94;100.00
20444;BME280;10381;53.730;10.010;2024-01-30T06:41:51;101988.75;;;2.13;100.00
20444;BME280;10381;53.730;10.010;2024-01-30T06:45:51;101982.56;;;2.16;100.00
20444;BME280;10381;53.730;10.010;2024-01-30T06:49:52;101985.44;;;2.33;100.00
20444;BME280;10381;53.730;10.010;2024-01-30T06:53:52;101986.56;;;2.26;100.00
20444;BME280;10381;53.730;10.010;2024-01-30T06:57:53;101990.13;;;2.23;100.00
20444;BME280;10381;53.730;10.010;2024-01-30T07:01:53;101987.09;;;2.10;100.00
20444;BME280;10381;53.730;10.010;2024-01-30T07:05:54;101989.97;;;2.03;100.00
20444;BME280;10381;53.730;10.010;2024-01-30T07:09:54;101977.19;;;1.94;100.00
20444;BME280;10381;53.730;10.010;2024-01-30T07:13:56;101983.94;;;2.01;100.00
20444;BME280;10381;53.730;10.010;2024-01-30T07:17:57;101977.63;;;2.06;100.00
20444;BME280;10381;53.730;10.010;2024-01-30T07:21:57;101973.97;;;2.12;100.00
20444;BME280;10381;53.730;10.010;2024-01-30T07:25:57;101967.78;;;2.15;100.00
20444;BME280;10381;53.730;10.010;2024-01-30T07:29:57;101965.16;;;2.15;100.00
20444;BME280;10381;53.730;10.010;2024-01-30T07:33:58;101968.38;;;2.48;100.00
20444;BME280;10381;53.730;10.010;2024-01-30T07:37:58;101968.41;;;2.46;100.00
20444;BME280;10381;53.730;10.010;2024-01-30T07:41:58;101972.47;;;2.55;100.00
20444;BME280;10381;53.730;10.010;2024-01-30T07:45:59;101977.44;;;2.63;100.00
20444;BME280;10381;53.730;10.010;2024-01-30T07:50:01;101979.72;;;2.72;100.00
20444;BME280;10381;53.730;10.010;2024-01-30T07:54:01;101976.56;;;2.86;100.00
20444;BME280;10381;53.730;10.010;2024-01-30T07:58:01;101981.53;;;2.93;100.00
20444;BME280;10381;53.730;10.010;2024-01-30T08:02:02;101970.84;;;2.99;100.00
20444;BME280;10381;53.730;10.010;2024-01-30T08:06:03;101974.63;;;3.14;100.00
20444;BME280;10381;53.730;10.010;2024-01-30T08:10:03;101963.00;;;3.22;100.00
20444;BME280;10381;53.730;10.010;2024-01-30T08:14:03;101968.06;;;3.26;100.00
20444;BME280;10381;53.730;10.010;2024-01-30T08:18:04;101969.97;;;3.45;100.00
20444;BME280;10381;53.730;10.010;2024-01-30T08:22:05;101984.09;;;3.62;100.00
20444;BME280;10381;53.730;10.010;2024-01-30T08:26:06;101991.78;;;3.67;100.00
20444;BME280;10381;53.730;10.010;2024-01-30T08:30:07;102003.38;;;3.83;100.00
20444;BME280;10381;53.730;10.010;2024-01-30T08:34:07;102000.91;;;4.01;100.00
20444;BME280;10381;53.730;10.010;2024-01-30T08:38:07;102013.41;;;3.94;100.00
20444;BME280;10381;53.730;10.010;2024-01-30T08:42:07;102028.66;;;4.07;100.00
20444;BME280;10381;53.730;10.010;2024-01-30T08:46:08;102032.41;;;4.21;100.00
20444;BME280;10381;53.730;10.010;2024-01-30T08:50:08;102049.41;;;4.33;100.00
20444;BME280;10381;53.730;10.010;2024-01-30T08:54:09;102056.44;;;4.53;100.00
20444;BME280;10381;53.730;10.010;2024-01-30T08:58:10;102057.88;;;4.60;100.00
20444;BME280;10381;53.730;10.010;2024-01-30T09:02:10;102059.00;;;4.55;100.00
20444;BME280;10381;53.730;10.010;2024-01-30T09:06:12;102064.31;;;4.53;100.00
20444;BME280;10381;53.730;10.010;2024-01-30T09:10:13;102080.50;;;4.63;100.00
20444;BME280;10381;53.730;10.010;2024-01-30T09:14:13;102093.94;;;4.76;100.00
20444;BME280;10381;53.730;10.010;2024-01-30T09:18:14;102123.50;;;5.01;100.00
20444;BME280;10381;53.730;10.010;2024-01-30T09:22:14;102134.50;;;5.09;100.00
20444;BME280;10381;53.730;10.010;2024-01-30T09:26:14;102153.28;;;5.21;100.00
20444;BME280;10381;53.730;10.010;2024-01-30T09:30:15;102173.50;;;5.19;100.00
20444;BME280;10381;53.730;10.010;2024-01-30T09:34:15;102176.50;;;5.50;100.00
20444;BME280;10381;53.730;10.010;2024-01-30T09:38:16;102191.00;;;5.59;100.00
20444;BME280;10381;53.730;10.010;2024-01-30T09:46:32;102209.56;;;5.95;100.00
20444;BME280;10381;53.730;10.010;2024-01-30T09:50:34;102207.97;;;6.10;100.00
20444;BME280;10381;53.730;10.010;2024-01-30T09:54:36;102212.44;;;6.27;100.00
20444;BME280;10381;53.730;10.010;2024-01-30T09:58:38;102217.72;;;6.27;100.00
20444;BME280;10381;53.730;10.010;2024-01-30T10:02:40;102222.94;;;6.46;100.00
20444;BME280;10381;53.730;10.010;2024-01-30T10:06:40;102216.00;;;6.45;100.00
20444;BME280;10381;53.730;10.010;2024-01-30T10:10:41;102227.78;;;6.55;100.00
20444;BME280;10381;53.730;10.010;2024-01-30T10:14:45;102231.44;;;6.70;100.00
20444;BME280;10381;53.730;10.010;2024-01-30T10:18:45;102233.34;;;7.03;100.00
20444;BME280;10381;53.730;10.010;2024-01-30T10:22:46;102234.41;;;6.81;100.00
20444;BME280;10381;53.730;10.010;2024-01-30T10:26:46;102243.72;;;6.89;100.00
20444;BME280;10381;53.730;10.010;2024-01-30T10:30:57;102250.06;;;7.02;100.00
20444;BME280;10381;53.730;10.010;2024-01-30T10:34:57;102248.69;;;7.12;100.00
20444;BME280;10381;53.730;10.010;2024-01-30T10:38:59;102244.56;;;7.41;100.00
20444;BME280;10381;53.730;10.010;2024-01-30T10:43:01;102242.94;;;7.39;100.00
20444;BME280;10381;53.730;10.010;2024-01-30T10:47:06;102240.59;;;7.83;100.00
20444;BME280;10381;53.730;10.010;2024-01-30T10:51:09;102259.47;;;7.76;100.00
20444;BME280;10381;53.730;10.010;2024-01-30T10:55:10;102263.06;;;7.75;100.00
20444;BME280;10381;53.730;10.010;2024-01-30T10:59:11;102262.41;;;8.03;100.00
20444;BME280;10381;53.730;10.010;2024-01-30T11:03:13;102256.63;;;7.96;100.00
20444;BME280;10381;53.730;10.010;2024-01-30T11:07:18;102264.28;;;8.01;100.00
20444;BME280;10381;53.730;10.010;2024-01-30T11:11:20;102267.31;;;8.10;100.00
20444;BME280;10381;53.730;10.010;2024-01-30T11:15:21;102264.66;;;8.10;100.00
20444;BME280;10381;53.730;10.010;2024-01-30T11:19:30;102265.69;;;8.24;100.00
20444;BME280;10381;53.730;10.010;2024-01-30T11:23:33;102259.31;;;8.60;100.00
20444;BME280;10381;53.730;10.010;2024-01-30T11:27:34;102262.19;;;8.23;100.00
20444;BME280;10381;53.730;10.010;2024-01-30T11:31:35;102268.88;;;8.46;100.00
20444;BME280;10381;53.730;10.010;2024-01-30T11:35:36;102261.59;;;8.34;100.00
20444;BME280;10381;53.730;10.010;2024-01-30T11:39:37;102260.50;;;8.38;100.00
20444;BME280;10381;53.730;10.010;2024-01-30T11:43:37;102256.78;;;8.42;100.00
20444;BME280;10381;53.730;10.010;2024-01-30T11:47:38;102243.91;;;8.20;100.00
20444;BME280;10381;53.730;10.010;2024-01-30T11:51:39;102236.03;;;8.03;100.00
20444;BME280;10381;53.730;10.010;2024-01-30T11:55:39;102234.34;;;8.02;100.00
20444;BME280;10381;53.730;10.010;2024-01-30T11:59:39;102232.72;;;7.99;100.00
20444;BME280;10381;53.730;10.010;2024-01-30T12:03:40;102227.09;;;8.05;100.00
20444;BME280;10381;53.730;10.010;2024-01-30T12:07:44;102219.50;;;8.15;100.00
20444;BME280;10381;53.730;10.010;2024-01-30T12:11:47;102216.28;;;7.94;100.00
20444;BME280;10381;53.730;10.010;2024-01-30T12:15:48;102215.69;;;7.89;100.00
20444;BME280;10381;53.730;10.010;2024-01-30T12:19:48;102201.81;;;8.01;100.00
20444;BME280;10381;53.730;10.010;2024-01-30T12:23:49;102205.47;;;7.99;100.00
20444;BME280;10381;53.730;10.010;2024-01-30T12:27:50;102202.97;;;7.96;100.00
20444;BME280;10381;53.730;10.010;2024-01-30T12:31:54;102201.38;;;8.09;100.00
20444;BME280;10381;53.730;10.010;2024-01-30T12:35:55;102199.66;;;8.08;100.00
20444;BME280;10381;53.730;10.010;2024-01-30T12:39:56;102192.09;;;8.18;100.00
20444;BME280;10381;53.730;10.010;2024-01-30T12:43:57;102186.03;;;8.31;100.00
20444;BME280;10381;53.730;10.010;2024-01-30T12:47:57;102196.34;;;8.36;100.00
20444;BME280;10381;53.730;10.010;2024-01-30T12:51:58;102194.25;;;8.43;100.00
20444;BME280;10381;53.730;10.010;2024-01-30T12:55:58;102196.47;;;8.35;100.00
20444;BME280;10381;53.730;10.010;2024-01-30T12:59:59;102194.81;;;8.32;100.00
20444;BME280;10381;53.730;10.010;2024-01-30T13:03:59;102187.84;;;8.31;100.00
20444;BME280;10381;53.730;10.010;2024-01-30T13:07:59;102194.81;;;8.32;100.00
20444;BME280;10381;53.730;10.010;2024-01-30T13:11:59;102188.88;;;8.28;100.00
20444;BME280;10381;53.730;10.010;2024-01-30T13:16:00;102177.53;;;8.26;100.00
20444;BME280;10381;53.730;10.010;2024-01-30T13:20:00;102177.47;;;8.28;100.00
20444;BME280;10381;53.730;10.010;2024-01-30T13:24:00;102174.03;;;8.26;100.00
20444;BME280;10381;53.730;10.010;2024-01-30T13:28:01;102177.59;;;8.25;100.00
20444;BME280;10381;53.730;10.010;2024-01-30T13:32:01;102169.09;;;8.20;100.00
20444;BME280;10381;53.730;10.010;2024-01-30T13:36:02;102156.66;;;8.22;100.00
20444;BME280;10381;53.730;10.010;2024-01-30T13:40:04;102151.56;;;8.19;100.00
20444;BME280;10381;53.730;10.010;2024-01-30T13:44:07;102150.88;;;8.15;100.00
20444;BME280;10381;53.730;10.010;2024-01-30T13:48:07;102156.06;;;8.17;100.00
20444;BME280;10381;53.730;10.010;2024-01-30T13:52:07;102142.69;;;8.20;100.00
20444;BME280;10381;53.730;10.010;2024-01-30T13:56:08;102144.31;;;8.22;100.00
20444;BME280;10381;53.730;10.010;2024-01-30T14:00:09;102144.22;;;8.24;100.00
20444;BME280;10381;53.730;10.010;2024-01-30T14:04:09;102137.84;;;8.28;100.00
20444;BME280;10381;53.730;10.010;2024-01-30T14:08:11;102132.38;;;8.31;100.00
20444;BME280;10381;53.730;10.010;2024-01-30T14:12:11;102129.66;;;8.32;100.00
20444;BME280;10381;53.730;10.010;2024-01-30T14:16:11;102122.50;;;8.35;100.00
20444;BME280;10381;53.730;10.010;2024-01-30T14:20:12;102126.75;;;8.37;100.00
20444;BME280;10381;53.730;10.010;2024-01-30T14:24:12;102126.50;;;8.42;100.00
20444;BME280;10381;53.730;10.010;2024-01-30T14:28:12;102113.31;;;8.42;100.00
20444;BME280;10381;53.730;10.010;2024-01-30T14:32:13;102113.03;;;8.46;100.00
20444;BME280;10381;53.730;10.010;2024-01-30T14:36:13;102107.28;;;8.40;100.00
20444;BME280;10381;53.730;10.010;2024-01-30T14:40:14;102103.00;;;8.37;100.00
20444;BME280;10381;53.730;10.010;2024-01-30T14:44:14;102102.88;;;8.39;100.00
20444;BME280;10381;53.730;10.010;2024-01-30T14:48:15;102094.81;;;8.42;100.00
20444;BME280;10381;53.730;10.010;2024-01-30T14:52:15;102102.03;;;8.38;100.00
20444;BME280;10381;53.730;10.010;2024-01-30T14:56:16;102100.09;;;8.42;100.00
20444;BME280;10381;53.730;10.010;2024-01-30T15:00:16;102107.75;;;8.46;100.00
20444;BME280;10381;53.730;10.010;2024-01-30T15:04:17;102097.09;;;8.48;100.00
20444;BME280;10381;53.730;10.010;2024-01-30T15:08:17;102098.06;;;8.47;100.00
20444;BME280;10381;53.730;10.010;2024-01-30T15:12:17;102096.91;;;8.51;100.00
20444;BME280;10381;53.730;10.010;2024-01-30T15:16:18;102104.75;;;8.52;100.00
20444;BME280;10381;53.730;10.010;2024-01-30T15:20:23;102107.41;;;8.52;100.00
20444;BME280;10381;53.730;10.010;2024-01-30T15:24:31;102098.72;;;8.50;100.00
20444;BME280;10381;53.730;10.010;2024-01-30T15:28:37;102109.09;;;8.53;100.00
20444;BME280;10381;53.730;10.010;2024-01-30T15:32:37;102098.91;;;8.47;100.00
20444;BME280;10381;53.730;10.010;2024-01-30T15:36:37;102103.66;;;8.57;100.00
20444;BME280;10381;53.730;10.010;2024-01-30T15:40:38;102110.81;;;8.55;100.00
20444;BME280;10381;53.730;10.010;2024-01-30T15:44:38;102100.56;;;8.64;100.00
20444;BME280;10381;53.730;10.010;2024-01-30T15:48:38;102100.91;;;8.58;100.00
20444;BME280;10381;53.730;10.010;2024-01-30T15:52:39;102101.84;;;8.57;100.00
20444;BME280;10381;53.730;10.010;2024-01-30T15:56:40;102097.34;;;8.59;100.00
20444;BME280;10381;53.730;10.010;2024-01-30T16:00:40;102103.81;;;8.53;100.00
20444;BME280;10381;53.730;10.010;2024-01-30T16:04:41;102091.28;;;8.57;100.00
20444;BME280;10381;53.730;10.010;2024-01-30T16:08:41;102100.91;;;8.58;100.00
20444;BME280;10381;53.730;10.010;2024-01-30T16:12:43;102100.81;;;8.60;100.00
20444;BME280;10381;53.730;10.010;2024-01-30T16:16:45;102101.16;;;8.53;100.00
20444;BME280;10381;53.730;10.010;2024-01-30T16:20:45;102099.25;;;8.41;100.00
20444;BME280;10381;53.730;10.010;2024-01-30T16:24:46;102095.41;;;8.31;100.00
20444;BME280;10381;53.730;10.010;2024-01-30T16:28:47;102098.53;;;8.07;100.00
20444;BME280;10381;53.730;10.010;2024-01-30T16:32:47;102094.59;;;8.15;100.00
20444;BME280;10381;53.730;10.010;2024-01-30T16:36:47;102089.69;;;8.39;100.00
20444;BME280;10381;53.730;10.010;2024-01-30T16:40:47;102099.25;;;8.41;100.00
20444;BME280;10381;53.730;10.010;2024-01-30T16:44:52;102090.53;;;8.39;100.00
20444;BME280;10381;53.730;10.010;2024-01-30T16:48:52;102093.50;;;8.49;100.00
20444;BME280;10381;53.730;10.010;2024-01-30T16:52:52;102084.84;;;8.47;100.00
20444;BME280;10381;53.730;10.010;2024-01-30T16:56:53;102092.97;;;8.58;100.00
20444;BME280;10381;53.730;10.010;2024-01-30T17:00:53;102096.84;;;8.52;100.00
20444;BME280;10381;53.730;10.010;2024-01-30T17:04:53;102098.53;;;8.53;100.00
20444;BME280;10381;53.730;10.010;2024-01-30T17:08:54;102104.50;;;8.57;100.00
20444;BME280;10381;53.730;10.010;2024-01-30T17:12:55;102113.19;;;8.59;100.00
20444;BME280;10381;53.730;10.010;2024-01-30T17:16:56;102109.59;;;8.60;100.00
20444;BME280;10381;53.730;10.010;2024-01-30T17:20:56;102119.63;;;8.69;100.00
20444;BME280;10381;53.730;10.010;2024-01-30T17:24:57;102134.78;;;8.66;100.00
20444;BME280;10381;53.730;10.010;2024-01-30T17:28:57;102136.06;;;8.74;100.00
20444;BME280;10381;53.730;10.010;2024-01-30T17:32:57;102147.91;;;8.98;100.00
20444;BME280;10381;53.730;10.010;2024-01-30T17:37:01;102147.41;;;8.91;100.00
20444;BME280;10381;53.730;10.010;2024-01-30T17:41:01;102153.66;;;8.90;100.00
20444;BME280;10381;53.730;10.010;2024-01-30T17:45:02;102157.91;;;8.92;100.00
20444;BME280;10381;53.730;10.010;2024-01-30T17:49:02;102158.25;;;8.86;100.00
20444;BME280;10381;53.730;10.010;2024-01-30T17:53:04;102152.59;;;8.78;100.00
20444;BME280;10381;53.730;10.010;2024-01-30T17:57:04;102153.91;;;8.71;100.00
20444;BME280;10381;53.730;10.010;2024-01-30T18:01:05;102151.25;;;8.71;100.00
20444;BME280;10381;53.730;10.010;2024-01-30T18:05:07;102160.09;;;8.70;100.00
20444;BME280;10381;53.730;10.010;2024-01-30T18:09:09;102187.13;;;8.89;100.00
20444;BME280;10381;53.730;10.010;2024-01-30T18:13:09;102185.38;;;8.90;100.00
20444;BME280;10381;53.730;10.010;2024-01-30T18:17:13;102235.13;;;8.98;100.00
20444;BME280;10381;53.730;10.010;2024-01-30T18:21:13;102229.69;;;8.85;100.00
20444;BME280;10381;53.730;10.010;2024-01-30T18:25:15;102239.34;;;8.86;100.00
20444;BME280;10381;53.730;10.010;2024-01-30T18:29:15;102240.53;;;8.80;100.00
20444;BME280;10381;53.730;10.010;2024-01-30T18:33:15;102238.50;;;8.85;100.00
20444;BME280;10381;53.730;10.010;2024-01-30T18:37:16;102239.53;;;8.83;100.00
20444;BME280;10381;53.730;10.010;2024-01-30T18:41:17;102226.66;;;8.77;100.00
20444;BME280;10381;53.730;10.010;2024-01-30T18:45:17;102237.28;;;8.91;100.00
20444;BME280;10381;53.730;10.010;2024-01-30T18:49:20;102247.16;;;8.87;100.00
20444;BME280;10381;53.730;10.010;2024-01-30T18:53:20;102254.34;;;8.85;100.00
20444;BME280;10381;53.730;10.010;2024-01-30T18:57:20;102258.28;;;8.78;100.00
20444;BME280;10381;53.730;10.010;2024-01-30T19:01:21;102269.19;;;8.72;100.00
20444;BME280;10381;53.730;10.010;2024-01-30T19:05:21;102263.06;;;8.71;100.00
20444;BME280;10381;53.730;10.010;2024-01-30T19:09:21;102279.00;;;8.70;100.00
20444;BME280;10381;53.730;10.010;2024-01-30T19:13:22;102280.66;;;8.57;100.00
20444;BME280;10381;53.730;10.010;2024-01-30T19:17:22;102262.47;;;8.50;100.00
20444;BME280;10381;53.730;10.010;2024-01-30T19:21:24;102268.72;;;8.49;100.00
20444;BME280;10381;53.730;10.010;2024-01-30T19:25:24;102260.03;;;8.47;100.00
20444;BME280;10381;53.730;10.010;2024-01-30T19:29:25;102261.81;;;8.47;100.00
20444;BME280;10381;53.730;10.010;2024-01-30T19:33:26;102260.19;;;8.44;100.00
20444;BME280;10381;53.730;10.010;2024-01-30T19:37:26;102261.88;;;8.45;100.00
20444;BME280;10381;53.730;10.010;2024-01-30T19:41:26;102260.03;;;8.47;100.00
20444;BME280;10381;53.730;10.010;2024-01-30T19:45:27;102273.69;;;8.38;100.00
20444;BME280;10381;53.730;10.010;2024-01-30T19:49:27;102272.16;;;8.34;100.00
20444;BME280;10381;53.730;10.010;2024-01-30T19:53:27;102261.44;;;8.21;100.00
20444;BME280;10381;53.730;10.010;2024-01-30T19:57:28;102256.75;;;8.10;100.00
20444;BME280;10381;53.730;10.010;2024-01-30T20:01:28;102251.00;;;8.02;100.00
20444;BME280;10381;53.730;10.010;2024-01-30T20:05:28;102248.38;;;8.02;100.00
20444;BME280;10381;53.730;10.010;2024-01-30T20:09:29;102242.19;;;8.03;100.00
20444;BME280;10381;53.730;10.010;2024-01-30T20:13:29;102235.19;;;8.02;100.00
20444;BME280;10381;53.730;10.010;2024-01-30T20:17:29;102244.72;;;8.05;100.00
20444;BME280;10381;53.730;10.010;2024-01-30T20:21:32;102243.03;;;8.04;100.00
20444;BME280;10381;53.730;10.010;2024-01-30T20:25:32;102255.44;;;8.02;100.00
20444;BME280;10381;53.730;10.010;2024-01-30T20:29:32;102250.25;;;8.00;100.00
20444;BME280;10381;53.730;10.010;2024-01-30T20:33:34;102236.44;;;7.95;100.00
20444;BME280;10381;53.730;10.010;2024-01-30T20:37:36;102247.19;;;7.92;100.00
20444;BME280;10381;53.730;10.010;2024-01-30T20:41:37;102241.44;;;7.84;100.00
20444;BME280;10381;53.730;10.010;2024-01-30T20:45:38;102238.97;;;7.81;100.00
20444;BME280;10381;53.730;10.010;2024-01-30T20:49:38;102253.44;;;7.74;100.00
20444;BME280;10381;53.730;10.010;2024-01-30T20:53:39;102236.22;;;7.66;100.00